createdAt,value
2018-09-20T00:00:43.082Z,69.50
2018-09-20T00:03:11.357Z,69.60
2018-09-20T00:05:39.634Z,69.50
2018-09-20T00:08:08.115Z,69.70
2018-09-20T00:10:36.390Z,69.70
2018-09-20T00:13:04.732Z,69.90
2018-09-20T00:15:33.026Z,69.90
2018-09-20T00:18:01.335Z,69.90
2018-09-20T00:20:29.577Z,69.90
2018-09-20T00:22:57.854Z,70.00
2018-09-20T00:25:26.081Z,70.10
2018-09-20T00:27:54.373Z,70.20
2018-09-20T00:30:22.690Z,70.30
2018-09-20T00:32:50.948Z,70.40
2018-09-20T00:35:19.279Z,70.70
2018-09-20T00:37:47.529Z,70.30
2018-09-20T00:40:15.824Z,70.90
2018-09-20T00:42:44.151Z,71.00
2018-09-20T00:45:12.429Z,71.10
2018-09-20T00:47:40.665Z,71.10
2018-09-20T00:50:08.976Z,71.10
2018-09-20T00:52:37.273Z,71.20
2018-09-20T00:55:05.565Z,71.20
2018-09-20T00:57:33.834Z,71.30
2018-09-20T01:00:02.122Z,71.20
2018-09-20T01:02:30.378Z,71.20
2018-09-20T01:04:58.635Z,71.20
2018-09-20T01:07:26.873Z,71.20
2018-09-20T01:09:55.142Z,71.30
2018-09-20T01:12:23.481Z,71.40
2018-09-20T01:14:51.760Z,71.50
2018-09-20T01:17:20.061Z,71.50
2018-09-20T01:19:48.309Z,71.70
2018-09-20T01:22:16.563Z,71.70
2018-09-20T01:24:44.860Z,71.80
2018-09-20T01:27:13.077Z,71.90
2018-09-20T01:29:41.352Z,71.90
2018-09-20T01:32:09.617Z,72.00
2018-09-20T01:34:37.892Z,73.00
2018-09-20T01:37:06.222Z,72.30
2018-09-20T01:39:34.500Z,72.50
2018-09-20T01:42:02.813Z,72.50
2018-09-20T01:44:31.101Z,72.70
2018-09-20T01:46:59.383Z,72.80
2018-09-20T01:49:27.726Z,72.90
2018-09-20T01:51:55.997Z,72.90
2018-09-20T01:54:24.293Z,73.00
2018-09-20T01:56:52.581Z,73.20
2018-09-20T01:59:20.869Z,73.20
2018-09-20T02:01:49.167Z,73.20
2018-09-20T02:04:17.401Z,73.20
2018-09-20T02:06:45.708Z,73.20
2018-09-20T02:09:13.985Z,73.30
2018-09-20T02:11:42.237Z,73.50
2018-09-20T02:14:10.498Z,73.60
2018-09-20T02:16:38.774Z,73.80
2018-09-20T02:19:07.069Z,74.00
2018-09-20T02:21:35.329Z,74.00
2018-09-20T02:24:03.595Z,74.10
2018-09-20T02:26:31.837Z,74.20
2018-09-20T02:29:00.103Z,74.40
2018-09-20T02:31:28.390Z,74.50
2018-09-20T02:33:56.703Z,74.70
2018-09-20T02:36:24.957Z,74.70
2018-09-20T02:38:53.220Z,74.70
2018-09-20T02:41:21.482Z,75.00
2018-09-20T02:43:49.822Z,75.00
2018-09-20T02:46:18.223Z,75.10
2018-09-20T02:48:46.561Z,75.30
2018-09-20T02:51:14.852Z,75.30
2018-09-20T02:53:43.188Z,75.20
2018-09-20T02:56:11.552Z,75.30
2018-09-20T02:58:39.933Z,75.40
2018-09-20T03:01:08.312Z,75.40
2018-09-20T03:03:36.663Z,75.40
2018-09-20T03:06:05.070Z,75.20
2018-09-20T03:08:33.403Z,75.30
2018-09-20T03:11:01.780Z,75.20
2018-09-20T03:13:30.077Z,75.80
2018-09-20T03:15:58.393Z,75.10
2018-09-20T03:18:26.785Z,75.10
2018-09-20T03:20:55.189Z,75.00
2018-09-20T03:23:23.489Z,75.00
2018-09-20T03:25:51.796Z,75.00
2018-09-20T03:28:20.128Z,75.00
2018-09-20T03:30:48.486Z,75.00
2018-09-20T03:33:16.780Z,75.10
2018-09-20T03:35:45.108Z,75.10
2018-09-20T03:38:13.462Z,75.20
2018-09-20T03:40:41.773Z,75.40
2018-09-20T03:43:10.146Z,75.40
2018-09-20T03:45:38.526Z,75.50
2018-09-20T03:48:06.945Z,75.60
2018-09-20T03:50:35.272Z,75.70
2018-09-20T03:53:03.658Z,75.70
2018-09-20T03:55:32.241Z,75.80
2018-09-20T03:58:00.574Z,76.10
2018-09-20T04:00:28.945Z,76.10
2018-09-20T04:02:57.264Z,76.10
2018-09-20T04:05:25.662Z,76.20
2018-09-20T04:07:54.020Z,76.30
2018-09-20T04:10:22.424Z,76.40
2018-09-20T04:12:50.796Z,76.50
2018-09-20T04:15:19.313Z,76.70
2018-09-20T04:17:47.661Z,76.80
2018-09-20T04:20:16.084Z,76.80
2018-09-20T04:22:44.399Z,76.90
2018-09-20T04:25:12.843Z,77.00
2018-09-20T04:27:41.181Z,77.00
2018-09-20T04:30:09.552Z,77.10
2018-09-20T04:32:37.924Z,77.10
2018-09-20T04:35:06.405Z,77.30
2018-09-20T04:37:34.700Z,77.30
2018-09-20T04:40:03.054Z,77.30
2018-09-20T04:42:31.380Z,77.30
2018-09-20T04:44:59.716Z,77.90
2018-09-20T04:47:28.097Z,77.30
2018-09-20T04:49:56.475Z,77.20
2018-09-20T04:52:24.793Z,77.20
2018-09-20T04:54:53.116Z,77.20
2018-09-20T04:57:21.437Z,77.10
2018-09-20T04:59:49.788Z,77.00
2018-09-20T05:02:18.073Z,77.00
2018-09-20T05:04:46.440Z,77.00
2018-09-20T05:07:14.723Z,77.20
2018-09-20T05:09:43.068Z,77.30
2018-09-20T05:12:11.371Z,77.30
2018-09-20T05:14:39.708Z,77.40
2018-09-20T05:17:08.060Z,77.30
2018-09-20T05:19:36.413Z,77.20
2018-09-20T05:22:05.304Z,77.20
2018-09-20T05:24:33.694Z,77.10
2018-09-20T05:27:02.124Z,77.10
2018-09-20T05:29:30.522Z,77.10
2018-09-20T05:31:59.142Z,77.20
2018-09-20T05:34:27.488Z,77.10
2018-09-20T05:37:25.099Z,77.10
2018-09-20T05:39:53.424Z,77.40
2018-09-20T05:42:21.780Z,77.30
2018-09-20T05:44:50.308Z,77.10
2018-09-20T05:47:18.645Z,77.20
2018-09-20T05:49:49.164Z,77.30
2018-09-20T05:52:17.502Z,77.30
2018-09-20T05:54:49.605Z,77.30
2018-09-20T05:57:17.980Z,77.30
2018-09-20T05:59:46.309Z,77.20
2018-09-20T06:02:14.657Z,77.20
2018-09-20T06:04:42.957Z,77.30
2018-09-20T06:07:11.285Z,77.90
2018-09-20T06:09:39.593Z,77.20
2018-09-20T06:12:13.745Z,77.10
2018-09-20T06:14:42.052Z,77.10
2018-09-20T06:17:10.421Z,77.20
2018-09-20T06:19:38.746Z,77.30
2018-09-20T06:22:07.330Z,77.30
2018-09-20T06:24:35.653Z,77.30
2018-09-20T06:27:04.301Z,77.40
2018-09-20T06:29:32.627Z,77.40
2018-09-20T06:32:00.944Z,77.40
2018-09-20T06:34:29.342Z,77.40
2018-09-20T06:36:57.736Z,77.40
2018-09-20T06:39:26.036Z,77.40
2018-09-20T06:41:54.555Z,77.40
2018-09-20T06:44:22.912Z,77.30
2018-09-20T06:46:51.255Z,77.30
2018-09-20T06:49:19.623Z,77.40
2018-09-20T06:51:47.953Z,78.10
2018-09-20T06:54:16.265Z,77.40
2018-09-20T06:56:44.617Z,77.40
2018-09-20T06:59:12.985Z,77.30
2018-09-20T07:01:41.353Z,77.40
2018-09-20T07:04:09.674Z,77.20
2018-09-20T07:06:37.996Z,77.30
2018-09-20T07:09:10.104Z,77.20
2018-09-20T07:11:38.477Z,77.00
2018-09-20T07:14:06.852Z,77.00
2018-09-20T07:16:35.153Z,77.40
2018-09-20T07:19:03.954Z,76.40
2018-09-20T07:21:32.429Z,76.10
2018-09-20T07:24:01.110Z,76.00
2018-09-20T07:26:29.423Z,75.60
2018-09-20T07:28:57.756Z,76.20
2018-09-20T07:31:26.087Z,74.80
2018-09-20T07:33:54.407Z,74.30
2018-09-20T07:36:22.769Z,73.60
2018-09-20T07:38:51.108Z,72.90
2018-09-20T07:41:19.393Z,72.40
2018-09-20T07:43:47.731Z,72.00
2018-09-20T07:46:16.045Z,71.30
2018-09-20T07:48:44.421Z,71.00
2018-09-20T07:51:12.756Z,70.40
2018-09-20T07:53:41.151Z,70.10
2018-09-20T07:56:09.481Z,69.30
2018-09-20T07:58:37.905Z,68.50
2018-09-20T08:01:06.133Z,68.10
2018-09-20T08:03:34.434Z,67.90
2018-09-20T08:06:02.771Z,67.60
2018-09-20T08:08:31.100Z,66.80
2018-09-20T08:10:59.421Z,65.90
2018-09-20T08:13:27.733Z,64.90
2018-09-20T08:15:56.073Z,63.30
2018-09-20T08:18:24.371Z,62.30
2018-09-20T08:20:52.677Z,61.40
2018-09-20T08:23:21.009Z,60.50
2018-09-20T08:25:49.349Z,59.50
2018-09-20T08:28:17.691Z,59.00
2018-09-20T08:30:46.022Z,58.50
2018-09-20T08:33:14.401Z,57.90
2018-09-20T08:35:42.717Z,57.20
2018-09-20T08:38:11.044Z,56.20
2018-09-20T08:40:39.366Z,55.90
2018-09-20T08:43:07.696Z,55.60
2018-09-20T08:45:35.998Z,55.50
2018-09-20T08:48:04.322Z,55.40
2018-09-20T08:50:33.061Z,54.60
2018-09-20T08:53:02.561Z,54.70
2018-09-20T08:55:31.379Z,54.60
2018-09-20T08:58:00.225Z,54.60
2018-09-20T09:00:28.549Z,54.60
2018-09-20T09:02:57.145Z,54.50
2018-09-20T09:05:25.446Z,54.80
2018-09-20T09:07:54.058Z,55.10
2018-09-20T09:10:22.402Z,54.60
2018-09-20T09:12:50.737Z,54.90
2018-09-20T09:15:19.058Z,55.10
2018-09-20T09:17:47.355Z,55.50
2018-09-20T09:20:15.712Z,55.60
2018-09-20T09:22:44.177Z,55.80
2018-09-20T09:25:13.011Z,56.20
2018-09-20T09:27:41.377Z,56.60
2018-09-20T09:30:11.475Z,56.90
2018-09-20T09:32:39.801Z,57.00
2018-09-20T09:35:08.267Z,57.30
2018-09-20T09:37:39.133Z,57.70
2018-09-20T09:40:07.879Z,57.50
2018-09-20T09:42:36.282Z,57.10
2018-09-20T09:45:04.759Z,56.40
2018-09-20T09:47:33.122Z,55.50
2018-09-20T09:50:05.225Z,54.90
2018-09-20T09:52:33.608Z,54.70
2018-09-20T09:55:01.921Z,54.90
2018-09-20T09:57:37.427Z,54.90
2018-09-20T10:00:05.756Z,55.20
2018-09-20T10:02:34.108Z,55.20
2018-09-20T10:05:02.573Z,55.50
2018-09-20T10:07:30.909Z,55.50
2018-09-20T10:09:59.202Z,56.30
2018-09-20T10:12:28.277Z,56.60
2018-09-20T10:14:56.638Z,56.40
2018-09-20T10:17:24.942Z,56.30
2018-09-20T10:19:53.265Z,55.70
2018-09-20T10:22:21.618Z,55.50
2018-09-20T10:24:49.965Z,55.50
2018-09-20T10:27:18.297Z,55.30
2018-09-20T10:29:46.641Z,55.40
2018-09-20T10:32:14.949Z,55.40
2018-09-20T10:34:43.358Z,55.40
2018-09-20T10:37:11.661Z,55.70
2018-09-20T10:39:39.977Z,55.40
2018-09-20T10:42:08.957Z,54.50
2018-09-20T10:44:37.343Z,53.60
2018-09-20T10:47:05.676Z,53.30
2018-09-20T10:49:33.991Z,53.10
2018-09-20T10:52:03.700Z,52.50
2018-09-20T10:54:32.071Z,52.00
2018-09-20T10:57:00.397Z,51.60
2018-09-20T10:59:28.705Z,51.00
2018-09-20T11:01:57.037Z,50.70
2018-09-20T11:04:25.534Z,50.60
2018-09-20T11:06:53.844Z,50.40
2018-09-20T11:09:22.208Z,49.60
2018-09-20T11:11:50.533Z,49.10
2018-09-20T11:14:18.860Z,48.90
2018-09-20T11:16:47.189Z,49.10
2018-09-20T11:19:15.516Z,48.90
2018-09-20T11:21:43.844Z,48.80
2018-09-20T11:24:12.234Z,47.70
2018-09-20T11:26:40.541Z,46.70
2018-09-20T11:29:08.899Z,46.30
2018-09-20T11:31:37.190Z,46.20
2018-09-20T11:34:05.537Z,46.50
2018-09-20T11:36:33.865Z,47.10
2018-09-20T11:39:02.169Z,47.60
2018-09-20T11:41:30.521Z,48.10
2018-09-20T11:43:58.870Z,48.80
2018-09-20T11:46:27.196Z,49.10
2018-09-20T11:48:55.489Z,49.70
2018-09-20T11:51:23.833Z,50.00
2018-09-20T11:53:52.154Z,50.50
2018-09-20T11:56:20.478Z,50.70
2018-09-20T11:58:48.800Z,50.60
2018-09-20T12:01:17.151Z,50.40
2018-09-20T12:03:45.437Z,50.50
2018-09-20T12:06:13.807Z,50.30
2018-09-20T12:08:42.225Z,50.00
2018-09-20T12:11:10.578Z,49.90
2018-09-20T12:13:39.069Z,50.10
2018-09-20T12:16:07.427Z,50.40
2018-09-20T12:18:35.745Z,49.80
2018-09-20T12:21:04.116Z,49.10
2018-09-20T12:23:32.429Z,48.70
2018-09-20T12:26:00.813Z,48.70
2018-09-20T12:28:29.126Z,48.60
2018-09-20T12:30:57.466Z,48.30
2018-09-20T12:33:25.802Z,48.60
2018-09-20T12:35:54.184Z,48.40
2018-09-20T12:38:22.474Z,48.00
2018-09-20T12:40:50.863Z,48.00
2018-09-20T12:43:19.198Z,48.10
2018-09-20T12:45:47.561Z,48.60
2018-09-20T12:48:15.927Z,48.90
2018-09-20T12:50:44.203Z,49.20
2018-09-20T12:53:12.551Z,49.50
2018-09-20T12:55:40.853Z,49.50
2018-09-20T12:58:09.452Z,49.60
2018-09-20T13:00:37.809Z,49.40
2018-09-20T13:03:06.121Z,48.70
2018-09-20T13:05:34.501Z,48.40
2018-09-20T13:08:02.941Z,48.50
2018-09-20T13:10:31.253Z,48.70
2018-09-20T13:12:59.619Z,49.10
2018-09-20T13:15:27.930Z,49.20
2018-09-20T13:17:56.237Z,48.50
2018-09-20T13:20:24.644Z,47.80
2018-09-20T13:22:52.877Z,48.00
2018-09-20T13:25:21.202Z,47.50
2018-09-20T13:27:49.531Z,46.60
2018-09-20T13:30:17.877Z,45.70
2018-09-20T13:32:46.206Z,45.50
2018-09-20T13:35:14.504Z,44.90
2018-09-20T13:37:42.831Z,44.40
2018-09-20T13:40:11.166Z,43.60
2018-09-20T13:42:39.585Z,43.10
2018-09-20T13:45:08.121Z,42.10
2018-09-20T13:47:36.434Z,41.30
2018-09-20T13:50:04.857Z,40.50
2018-09-20T13:52:33.218Z,39.70
2018-09-20T13:55:01.542Z,39.20
2018-09-20T13:57:29.868Z,38.80
2018-09-20T13:59:58.173Z,38.70
2018-09-20T14:02:26.529Z,39.10
2018-09-20T14:04:54.957Z,39.60
2018-09-20T14:07:23.418Z,40.20
2018-09-20T14:09:51.742Z,40.60
2018-09-20T14:12:20.045Z,41.10
2018-09-20T14:14:51.631Z,41.80
2018-09-20T14:17:19.989Z,42.20
2018-09-20T14:19:48.549Z,42.80
2018-09-20T14:22:16.889Z,43.40
2018-09-20T14:24:45.338Z,43.60
2018-09-20T14:27:13.700Z,43.40
2018-09-20T14:29:42.128Z,43.80
2018-09-20T14:32:10.517Z,44.20
2018-09-20T14:34:38.946Z,44.60
2018-09-20T14:37:07.373Z,44.70
2018-09-20T14:39:35.682Z,44.70
2018-09-20T14:42:04.010Z,44.90
2018-09-20T14:44:32.349Z,45.00
2018-09-20T14:47:00.984Z,45.20
2018-09-20T14:49:29.344Z,45.20
2018-09-20T14:51:57.653Z,45.50
2018-09-20T14:54:25.983Z,45.90
2018-09-20T14:56:54.309Z,46.20
2018-09-20T14:59:22.613Z,46.50
2018-09-20T15:01:50.981Z,46.90
2018-09-20T15:04:19.278Z,46.90
2018-09-20T15:06:47.605Z,46.80
2018-09-20T15:09:15.939Z,46.80
2018-09-20T15:11:44.269Z,47.00
2018-09-20T15:14:12.569Z,47.20
2018-09-20T15:16:40.902Z,47.50
2018-09-20T15:19:09.272Z,47.80
2018-09-20T15:21:37.593Z,47.90
2018-09-20T15:24:05.963Z,47.80
2018-09-20T15:26:34.277Z,47.40
2018-09-20T15:29:02.650Z,47.30
2018-09-20T15:31:30.949Z,47.30
2018-09-20T15:33:59.283Z,47.60
2018-09-20T15:36:31.410Z,47.70
2018-09-20T15:38:59.745Z,47.90
2018-09-20T15:41:28.102Z,47.80
2018-09-20T15:43:56.413Z,48.00
2018-09-20T15:46:24.741Z,48.30
2018-09-20T15:48:53.091Z,48.70
2018-09-20T15:51:21.610Z,48.60
2018-09-20T15:53:49.945Z,48.60
2018-09-20T15:56:18.244Z,48.80
2018-09-20T15:58:46.578Z,49.00
2018-09-20T16:01:14.887Z,48.80
2018-09-20T16:03:43.264Z,49.10
2018-09-20T16:06:11.609Z,49.20
2018-09-20T16:08:39.964Z,49.10
2018-09-20T16:11:08.295Z,49.50
2018-09-20T16:13:36.589Z,49.70
2018-09-20T16:16:04.924Z,49.60
2018-09-20T16:18:33.243Z,50.00
2018-09-20T16:21:01.546Z,50.20
2018-09-20T16:23:29.958Z,50.30
2018-09-20T16:25:58.216Z,50.50
2018-09-20T16:28:46.285Z,50.40
2018-09-20T16:33:50.657Z,50.40
2018-09-20T16:36:30.686Z,50.50
2018-09-20T16:39:18.553Z,50.50
2018-09-20T16:41:49.976Z,50.90
2018-09-20T16:44:18.331Z,50.90
2018-09-20T16:46:46.632Z,50.80
2018-09-20T16:49:14.989Z,51.00
2018-09-20T16:51:43.292Z,51.20
2018-09-20T16:54:11.636Z,51.50
2018-09-20T16:56:40.033Z,51.70
2018-09-20T16:59:08.398Z,52.10
2018-09-20T17:01:36.689Z,52.20
2018-09-20T17:04:05.017Z,52.60
2018-09-20T17:06:33.425Z,53.10
2018-09-20T17:09:01.737Z,53.50
2018-09-20T17:11:30.033Z,53.90
2018-09-20T17:13:58.397Z,54.40
2018-09-20T17:16:26.762Z,54.50
2018-09-20T17:18:55.033Z,54.80
2018-09-20T17:21:23.381Z,55.10
2018-09-20T17:23:51.701Z,55.20
2018-09-20T17:26:20.006Z,55.50
2018-09-20T17:28:48.361Z,55.80
2018-09-20T17:31:16.657Z,55.80
2018-09-20T17:33:44.969Z,56.10
2018-09-20T17:36:13.585Z,56.30
2018-09-20T17:38:42.795Z,56.50
2018-09-20T17:41:15.468Z,56.60
2018-09-20T17:43:47.029Z,56.80
2018-09-20T17:46:15.396Z,57.00
2018-09-20T17:48:43.718Z,57.30
2018-09-20T17:51:13.289Z,57.70
2018-09-20T17:53:42.413Z,58.00
2018-09-20T17:56:11.720Z,58.30
2018-09-20T17:58:40.497Z,58.40
2018-09-20T18:01:08.917Z,58.80
2018-09-20T18:03:37.218Z,58.90
2018-09-20T18:06:05.696Z,59.30
2018-09-20T18:08:34.232Z,59.60
2018-09-20T18:11:02.538Z,59.70
2018-09-20T18:13:34.698Z,59.80
2018-09-20T18:16:03.005Z,60.20
2018-09-20T18:18:31.351Z,60.40
2018-09-20T18:20:59.709Z,60.80
2018-09-20T18:23:28.040Z,60.90
2018-09-20T18:25:56.401Z,61.30
2018-09-20T18:28:24.741Z,61.50
2018-09-20T18:30:53.104Z,61.60
2018-09-20T18:33:21.496Z,61.90
2018-09-20T18:35:49.853Z,62.30
2018-09-20T18:38:18.357Z,62.60
2018-09-20T18:40:46.713Z,62.70
2018-09-20T18:43:15.013Z,62.90
2018-09-20T18:45:43.502Z,63.10
2018-09-20T18:48:11.833Z,63.20
2018-09-20T18:50:40.157Z,63.30
2018-09-20T18:53:08.482Z,63.70
2018-09-20T18:55:36.813Z,63.70
2018-09-20T18:58:05.197Z,63.90
2018-09-20T19:00:33.533Z,64.10
2018-09-20T19:03:02.276Z,64.30
2018-09-20T19:05:30.603Z,64.40
2018-09-20T19:07:58.941Z,65.20
2018-09-20T19:10:27.249Z,64.70
2018-09-20T19:12:55.638Z,64.80
2018-09-20T19:15:23.917Z,65.00
2018-09-20T19:17:52.261Z,65.20
2018-09-20T19:20:20.582Z,65.40
2018-09-20T19:22:49.348Z,65.40
2018-09-20T19:25:17.689Z,65.60
2018-09-20T19:27:46.030Z,65.70
2018-09-20T19:30:14.341Z,65.60
2018-09-20T19:32:42.677Z,66.00
2018-09-20T19:35:11.006Z,66.30
2018-09-20T19:37:39.313Z,66.70
2018-09-20T19:40:07.709Z,66.90
2018-09-20T19:42:36.037Z,67.00
2018-09-20T19:45:04.373Z,67.10
2018-09-20T19:47:32.709Z,67.30
2018-09-20T19:50:01.360Z,67.50
2018-09-20T19:52:29.972Z,67.80
2018-09-20T19:54:58.371Z,68.00
2018-09-20T19:57:26.898Z,68.20
2018-09-20T19:59:55.369Z,68.40
2018-09-20T20:02:23.699Z,68.60
2018-09-20T20:04:52.261Z,68.90
2018-09-20T20:07:20.585Z,68.90
2018-09-20T20:09:48.905Z,69.00
2018-09-20T20:12:17.221Z,69.30
2018-09-20T20:14:45.584Z,69.40
2018-09-20T20:17:13.909Z,69.50
2018-09-20T20:19:42.250Z,69.60
2018-09-20T20:22:10.581Z,69.80
2018-09-20T20:24:38.891Z,70.00
2018-09-20T20:27:07.241Z,70.20
2018-09-20T20:29:35.878Z,70.40
2018-09-20T20:32:04.201Z,70.60
2018-09-20T20:34:32.543Z,70.70
2018-09-20T20:37:00.885Z,70.90
2018-09-20T20:39:29.213Z,71.00
2018-09-20T20:41:57.721Z,71.10
2018-09-20T20:44:26.097Z,71.20
2018-09-20T20:46:54.408Z,71.40
2018-09-20T20:49:22.750Z,71.40
2018-09-20T20:51:51.077Z,71.40
2018-09-20T20:54:19.445Z,71.40
2018-09-20T20:56:47.866Z,71.70
2018-09-20T20:59:16.181Z,71.80
2018-09-20T21:01:45.605Z,72.00
2018-09-20T21:04:13.901Z,72.20
2018-09-20T21:06:42.238Z,72.20
2018-09-20T21:09:10.544Z,72.30
2018-09-20T21:11:38.868Z,72.50
2018-09-20T21:14:07.558Z,72.60
2018-09-20T21:16:35.889Z,72.60
2018-09-20T21:19:04.246Z,72.60
2018-09-20T21:21:32.605Z,73.50
2018-09-20T21:24:00.925Z,72.70
2018-09-20T21:26:29.255Z,72.70
2018-09-20T21:28:57.582Z,73.00
2018-09-20T21:31:25.960Z,73.10
2018-09-20T21:33:54.301Z,73.10
2018-09-20T21:36:22.945Z,73.20
2018-09-20T21:38:51.441Z,73.30
2018-09-20T21:41:19.769Z,73.50
2018-09-20T21:43:48.177Z,73.50
2018-09-20T21:46:16.509Z,73.50
2018-09-20T21:48:44.837Z,73.60
2018-09-20T21:51:13.233Z,73.50
2018-09-20T21:53:41.528Z,73.60
2018-09-20T21:56:09.845Z,73.60
2018-09-20T21:58:38.186Z,73.70
2018-09-20T22:01:06.508Z,73.90
2018-09-20T22:03:34.805Z,74.10
2018-09-20T22:06:03.144Z,74.10
2018-09-20T22:08:31.455Z,74.10
2018-09-20T22:10:59.793Z,74.10
2018-09-20T22:13:28.288Z,74.10
2018-09-20T22:15:56.653Z,74.00
2018-09-20T22:18:24.981Z,73.80
2018-09-20T22:20:53.336Z,74.00
2018-09-20T22:23:21.701Z,74.00
2018-09-20T22:25:50.021Z,74.00
2018-09-20T22:28:18.330Z,74.00
2018-09-20T22:30:46.705Z,74.00
2018-09-20T22:33:15.081Z,73.90
2018-09-20T22:35:43.410Z,73.90
2018-09-20T22:38:11.738Z,73.90
2018-09-20T22:40:40.089Z,73.90
2018-09-20T22:43:08.420Z,73.90
2018-09-20T22:45:36.744Z,73.90
2018-09-20T22:48:05.230Z,74.00
2018-09-20T22:50:33.565Z,74.20
2018-09-20T22:53:01.909Z,74.20
2018-09-20T22:55:30.241Z,74.30
2018-09-20T22:57:58.557Z,74.50
2018-09-20T23:00:26.866Z,74.40
2018-09-20T23:02:56.089Z,74.50
2018-09-20T23:05:24.605Z,74.80
2018-09-20T23:07:52.912Z,74.80
2018-09-20T23:10:21.264Z,74.80
2018-09-20T23:12:49.605Z,75.00
2018-09-20T23:15:17.917Z,75.20
2018-09-20T23:17:46.241Z,75.30
2018-09-20T23:20:14.595Z,75.40
2018-09-20T23:22:42.929Z,75.70
2018-09-20T23:25:11.249Z,75.80
2018-09-20T23:27:39.549Z,76.10
2018-09-20T23:30:07.901Z,76.30
2018-09-20T23:32:36.256Z,76.30
2018-09-20T23:35:04.592Z,76.30
2018-09-20T23:37:32.880Z,76.40
2018-09-20T23:40:01.229Z,76.70
2018-09-20T23:42:29.618Z,76.80
2018-09-20T23:44:57.913Z,76.80
2018-09-20T23:47:26.236Z,76.80
2018-09-20T23:49:54.527Z,76.90
2018-09-20T23:52:22.880Z,76.90
2018-09-20T23:54:51.237Z,76.80
2018-09-20T23:57:19.529Z,76.80
2018-09-20T23:59:47.842Z,77.10
